Bookmark and Share
Track history (hours):
 

Capewater

Last reported at 2014-Apr-17 12:32 UTC. Time now 2014-Apr-17 12:38 UTC.
Position N 51°26' E 001°26'.

Length 100 m; draft 7 m.

Type: Tanker. MMSI: 246346000.

NotesDate/timePositionNaut miles runAvg speedWind from/ knotsBaromVisibWave heightAir tempDewpointWater temp
2014-Apr-17 12:32N 51°26' E 001°26'0 0.0
2014-Apr-17 11:34N 51°26' E 001°26'9 9.2
2014-Apr-17 10:33N 51°32' E 001°37'1414.0
2014-Apr-17 09:33N 51°45' E 001°44'1515.4
2014-Apr-17 08:33N 51°60' E 001°49'1715.3
2014-Apr-17 07:29N 52°14' E 002°02'1313.9
2014-Apr-17 06:34N 52°25' E 002°13'1313.1
2014-Apr-17 05:33N 52°38' E 002°12'1212.4
2014-Apr-17 04:33N 52°47' E 001°58'1211.8
2014-Apr-17 03:34N 52°53' E 001°40'1111.1
2014-Apr-17 02:34N 53°01' E 001°27'1212.0
2014-Apr-17 01:34N 53°11' E 001°19'1211.8
2014-Apr-17 00:33N 53°22' E 001°08'1511.4
2014-Apr-16 23:15N 53°35' E 000°56'912.1
2014-Apr-16 22:32N 53°41' E 000°47'1212.1
2014-Apr-16 21:34N 53°51' E 000°35'1313.0
2014-Apr-16 20:34N 54°01' E 000°21'1413.7
2014-Apr-16 19:33N 54°10' E 000°04'1414.1
2014-Apr-16 18:33N 54°21' W 000°11'1514.9
2014-Apr-16 17:33N 54°32' W 000°29'1615.5
2014-Apr-16 16:33N 54°39' W 000°53'10 9.6
2014-Apr-16 15:33N 54°37' W 001°09'0 0.0
2014-Apr-16 14:33N 54°37' W 001°09'0 0.0
2014-Apr-16 13:33N 54°37' W 001°09'0 0.0
2014-Apr-16 12:24N 54°37' W 001°09'0 0.0
2014-Apr-16 11:30N 54°37' W 001°09'0 0.0
2014-Apr-16 10:33N 54°37' W 001°09'0 0.0
2014-Apr-16 08:12N 54°37' W 001°09'0 0.0
2014-Apr-16 07:30N 54°37' W 001°09'0 0.0
2014-Apr-16 06:30N 54°37' W 001°09'0 0.0
2014-Apr-16 05:33N 54°37' W 001°09'0 0.0
2014-Apr-16 04:33N 54°37' W 001°09'0 0.0
2014-Apr-16 03:33N 54°37' W 001°09'0 0.0
2014-Apr-16 02:33N 54°37' W 001°09'0 0.0
2014-Apr-16 01:33N 54°37' W 001°09'0 0.0
2014-Apr-16 00:33N 54°37' W 001°09'0 0.0
2014-Apr-15 23:30N 54°37' W 001°09'0 0.0
2014-Apr-15 22:33N 54°37' W 001°09'0 0.3
2014-Apr-15 21:33N 54°37' W 001°09'6 5.8
2014-Apr-15 20:33N 54°42' W 001°03'0 0.0
2014-Apr-15 19:31N 54°42' W 001°03'0 0.0
2014-Apr-15 18:31N 54°42' W 001°03'0 0.1
2014-Apr-15 17:31N 54°42' W 001°03'0 0.0
2014-Apr-15 16:31N 54°42' W 001°03'0 0.0
2014-Apr-15 15:31N 54°42' W 001°03'0 0.0
2014-Apr-15 14:31N 54°42' W 001°03'0 0.0
2014-Apr-15 11:32N 54°42' W 001°03'0 0.0
2014-Apr-15 10:32N 54°42' W 001°03'0 0.0
2014-Apr-15 09:32N 54°42' W 001°03'0 0.0
2014-Apr-15 08:32N 54°42' W 001°03'2 1.7
2014-Apr-15 07:33N 54°41' W 001°05'6 5.7
2014-Apr-15 06:34N 54°36' W 001°11'0 0.0
2014-Apr-15 03:30N 54°36' W 001°11'0 0.0
2014-Apr-15 01:30N 54°36' W 001°11'0 0.0
2014-Apr-15 00:33N 54°36' W 001°11'0 0.0
2014-Apr-14 23:30N 54°36' W 001°11'0 0.0
2014-Apr-14 22:30N 54°36' W 001°11'0 0.0
2014-Apr-14 21:30N 54°36' W 001°11'0 0.0
2014-Apr-14 20:30N 54°36' W 001°11'0 0.0
2014-Apr-14 18:30N 54°36' W 001°11'0 0.0
2014-Apr-14 17:30N 54°36' W 001°11'0 0.0
2014-Apr-14 16:33N 54°36' W 001°11'0 0.0
2014-Apr-14 15:32N 54°36' W 001°11'0 0.0
2014-Apr-14 11:32N 54°36' W 001°11'0 0.0
2014-Apr-14 10:29N 54°36' W 001°11'2 2.4
2014-Apr-14 09:33N 54°38' W 001°09'4 3.9
2014-Apr-14 08:33N 54°39' W 001°03'8 7.6
2014-Apr-14 07:33N 54°38' W 000°50'8 8.0
2014-Apr-14 06:33N 54°36' W 000°37'1211.8
2014-Apr-14 05:34N 54°28' W 000°22'9713.8
2014-Apr-13 22:33N 53°12' E 001°19'1414.1
2014-Apr-13 21:33N 52°60' E 001°31'1312.9
2014-Apr-13 20:33N 52°51' E 001°46'1212.0
2014-Apr-13 19:33N 52°44' E 002°03'1312.3
2014-Apr-13 18:29N 52°37' E 002°21'5713.7
2014-Apr-13 14:21N 52°06' E 003°39'1012.8
2014-Apr-13 13:33N 52°03' E 003°55'1110.9
2014-Apr-13 12:33N 51°57' E 004°10'6 5.7
2014-Apr-13 11:25N 51°53' E 004°18'0 0.0
2014-Apr-13 10:30N 51°53' E 004°18'0 0.0
2014-Apr-13 09:28N 51°53' E 004°18'0 0.0
2014-Apr-13 08:24N 51°53' E 004°18'0 0.0
2014-Apr-13 07:15N 51°53' E 004°18'0 0.0
2014-Apr-13 06:28N 51°53' E 004°18'0 0.0
2014-Apr-13 05:24N 51°53' E 004°18'0 0.0
2014-Apr-13 04:33N 51°53' E 004°18'0 0.0
2014-Apr-13 03:33N 51°53' E 004°18'0 0.0
2014-Apr-13 02:30N 51°53' E 004°18'0 0.0
2014-Apr-13 01:22N 51°53' E 004°18'0 0.0
2014-Apr-13 00:33N 51°53' E 004°18'0 0.0
2014-Apr-12 23:24N 51°53' E 004°18'0 0.0
2014-Apr-12 22:33N 51°53' E 004°18'0 0.0
2014-Apr-12 21:27N 51°53' E 004°18'0 0.0
2014-Apr-12 20:33N 51°53' E 004°18'0 0.0
2014-Apr-12 19:27N 51°53' E 004°18'0 0.0
2014-Apr-12 18:33N 51°53' E 004°18'0 0.0
2014-Apr-12 16:33N 51°53' E 004°18'0 0.0
2014-Apr-12 15:33N 51°53' E 004°18'0 0.0
2014-Apr-12 14:30N 51°53' E 004°18'0 0.0
2014-Apr-11 21:06N 51°53' E 004°18'1 1.9
2014-Apr-11 20:32N 51°54' E 004°18'1111.3
2014-Apr-11 19:33N 51°60' E 004°02'1212.1
2014-Apr-11 18:32N 51°57' E 003°43'0 0.3
2014-Apr-11 17:28N 51°57' E 003°43'0 0.0
2014-Apr-11 16:10N 51°57' E 003°43'0 0.0
2014-Apr-11 15:28N 51°57' E 003°43'0 0.1
2014-Apr-11 14:28N 51°57' E 003°43'0 0.0
2014-Apr-11 13:31N 51°57' E 003°43'0 0.0
2014-Apr-11 12:31N 51°57' E 003°43'0 0.0
2014-Apr-11 11:25N 51°57' E 003°43'0 0.0
2014-Apr-11 10:31N 51°57' E 003°43'0 0.1
2014-Apr-11 09:31N 51°57' E 003°43'0 0.1
2014-Apr-11 08:31N 51°57' E 003°43'0 0.0
2014-Apr-11 07:31N 51°57' E 003°43'0 0.0
2014-Apr-11 06:28N 51°57' E 003°43'0 0.0
2014-Apr-11 05:31N 51°57' E 003°43'0 0.0
2014-Apr-11 04:31N 51°57' E 003°43'0 0.0
2014-Apr-11 03:31N 51°57' E 003°43'0 0.1
2014-Apr-11 02:25N 51°57' E 003°43'0 0.0
2014-Apr-11 01:31N 51°57' E 003°43'0 0.0
2014-Apr-11 00:31N 51°57' E 003°43'0 0.0
2014-Apr-10 23:31N 51°57' E 003°43'0 0.0
2014-Apr-10 22:31N 51°57' E 003°43'0 0.0
2014-Apr-10 21:31N 51°57' E 003°43'0 0.1
2014-Apr-10 20:31N 51°57' E 003°43'0 0.0
2014-Apr-10 19:31N 51°57' E 003°43'0 0.0
2014-Apr-10 18:31N 51°57' E 003°43'0 0.0
2014-Apr-10 17:19N 51°57' E 003°43'0 0.0
2014-Apr-10 16:25N 51°57' E 003°43'0 0.0
2014-Apr-10 15:31N 51°57' E 003°43'0 0.1
2014-Apr-10 14:25N 51°57' E 003°43'0 0.1
2014-Apr-10 13:31N 51°57' E 003°43'0 0.0
2014-Apr-10 12:31N 51°57' E 003°43'0 0.0
2014-Apr-10 11:31N 51°57' E 003°43'0 0.0
2014-Apr-10 08:31N 51°57' E 003°43'0 0.0
2014-Apr-10 07:31N 51°57' E 003°43'0 0.1
2014-Apr-10 06:31N 51°57' E 003°43'0 0.0
2014-Apr-10 05:28N 51°57' E 003°43'0 0.0
2014-Apr-10 04:31N 51°57' E 003°43'0 0.1
2014-Apr-10 03:31N 51°57' E 003°43'0 0.1
2014-Apr-10 02:31N 51°57' E 003°43'0 0.0
2014-Apr-10 01:31N 51°57' E 003°43'0 0.0
2014-Apr-10 00:31N 51°57' E 003°43'0 0.0
2014-Apr-09 23:22N 51°57' E 003°43'0 0.0
2014-Apr-09 22:31N 51°57' E 003°43'0 0.0
2014-Apr-09 21:31N 51°57' E 003°43'0 0.0
2014-Apr-09 20:31N 51°57' E 003°43'0 0.0
2014-Apr-09 19:31N 51°57' E 003°43'0 0.0
2014-Apr-09 18:31N 51°57' E 003°43'0 0.0
2014-Apr-09 17:31N 51°57' E 003°43'0 0.0
2014-Apr-09 16:22N 51°57' E 003°43'0 0.0
2014-Apr-09 15:31N 51°57' E 003°43'0 0.0
2014-Apr-09 14:25N 51°57' E 003°43'0 0.0
2014-Apr-09 13:22N 51°57' E 003°43'0 0.0
2014-Apr-09 12:28N 51°57' E 003°43'0 0.0
2014-Apr-09 08:16N 51°57' E 003°43'0 0.0
2014-Apr-09 07:16N 51°57' E 003°43'0 0.0
2014-Apr-09 06:28N 51°57' E 003°43'0 0.0
2014-Apr-09 05:28N 51°57' E 003°43'0 0.1
2014-Apr-09 04:31N 51°57' E 003°43'0 0.0
2014-Apr-09 02:10N 51°57' E 003°43'0 0.0
2014-Apr-09 01:04N 51°57' E 003°43'0 0.0
2014-Apr-09 00:31N 51°57' E 003°43'0 0.0
2014-Apr-08 23:28N 51°57' E 003°43'0 0.0
2014-Apr-08 21:31N 51°57' E 003°43'0 0.0
2014-Apr-08 20:16N 51°57' E 003°43'0 0.2
2014-Apr-08 19:32N 51°57' E 003°43'1312.9
2014-Apr-08 18:33N 51°54' E 003°23'14 6.5
2014-Apr-08 16:23N 52°03' E 003°40'1011.8
2014-Apr-08 15:33N 52°02' E 003°56'1111.3
2014-Apr-08 14:33N 51°56' E 004°12'10 9.5
2014-Apr-08 13:31N 51°51' E 004°25'9 9.0
2014-Apr-08 12:33N 51°48' E 004°38'0 0.3
2014-Apr-08 11:21N 51°47' E 004°38'0 0.0
2014-Apr-08 10:25N 51°47' E 004°38'0 0.0
2014-Apr-08 09:33N 51°47' E 004°38'0 0.0
2014-Apr-08 08:30N 51°47' E 004°38'0 0.0
2014-Apr-08 07:30N 51°47' E 004°38'0 0.0
2014-Apr-08 06:33N 51°47' E 004°38'0 0.0
2014-Apr-08 05:30N 51°47' E 004°38'0 0.0
2014-Apr-08 04:33N 51°47' E 004°38'0 0.0
2014-Apr-08 03:34N 51°47' E 004°38'0 0.0
2014-Apr-08 02:33N 51°47' E 004°38'0 0.0
2014-Apr-08 01:33N 51°47' E 004°38'0 0.0
2014-Apr-08 00:27N 51°47' E 004°38'0 0.0
2014-Apr-07 23:33N 51°47' E 004°38'0 0.0
2014-Apr-07 22:30N 51°47' E 004°38'0 0.0
2014-Apr-07 21:24N 51°47' E 004°38'0 0.0
2014-Apr-07 20:30N 51°47' E 004°38'0 0.0
2014-Apr-07 19:30N 51°47' E 004°38'0 0.0
2014-Apr-07 17:27N 51°47' E 004°38'0 0.0
2014-Apr-07 16:33N 51°47' E 004°38'0 0.0
2014-Apr-07 15:33N 51°47' E 004°38'0 0.0
2014-Apr-07 14:30N 51°47' E 004°38'0 0.2
2014-Apr-07 13:34N 51°47' E 004°38'7 6.9
2014-Apr-07 12:33N 51°50' E 004°28'  

Dump ship's entire track history

sailing weather and tide predictions

Capewater — PBPQ — position and weather